sensor_id;sensor_type;location;lat;lon;timestamp;temperature;humidity
24011;DHT22;12217;50.792;4.372;2023-06-14T00:01:44;23.70;70.50
24011;DHT22;12217;50.792;4.372;2023-06-14T00:04:12;23.70;70.60
24011;DHT22;12217;50.792;4.372;2023-06-14T00:06:39;23.70;71.00
24011;DHT22;12217;50.792;4.372;2023-06-14T00:09:04;23.60;70.80
24011;DHT22;12217;50.792;4.372;2023-06-14T00:11:33;23.50;70.50
24011;DHT22;12217;50.792;4.372;2023-06-14T00:13:58;23.60;70.60
24011;DHT22;12217;50.792;4.372;2023-06-14T00:16:24;23.60;70.60
24011;DHT22;12217;50.792;4.372;2023-06-14T00:18:49;23.60;70.80
24011;DHT22;12217;50.792;4.372;2023-06-14T00:21:17;23.50;70.70
24011;DHT22;12217;50.792;4.372;2023-06-14T00:23:43;23.50;70.70
24011;DHT22;12217;50.792;4.372;2023-06-14T00:26:08;23.50;70.10
24011;DHT22;12217;50.792;4.372;2023-06-14T00:28:34;23.50;70.10
24011;DHT22;12217;50.792;4.372;2023-06-14T00:31:00;23.50;70.10
24011;DHT22;12217;50.792;4.372;2023-06-14T00:33:25;23.50;70.50
24011;DHT22;12217;50.792;4.372;2023-06-14T00:35:51;23.50;70.70
24011;DHT22;12217;50.792;4.372;2023-06-14T00:38:19;23.50;70.50
24011;DHT22;12217;50.792;4.372;2023-06-14T00:40:48;23.40;71.00
24011;DHT22;12217;50.792;4.372;2023-06-14T00:43:14;23.40;71.10
24011;DHT22;12217;50.792;4.372;2023-06-14T00:45:41;23.30;71.50
24011;DHT22;12217;50.792;4.372;2023-06-14T00:48:07;23.30;71.60
24011;DHT22;12217;50.792;4.372;2023-06-14T00:50:34;23.40;71.40
24011;DHT22;12217;50.792;4.372;2023-06-14T00:53:01;23.40;71.50
24011;DHT22;12217;50.792;4.372;2023-06-14T00:55:28;23.30;71.90
24011;DHT22;12217;50.792;4.372;2023-06-14T00:57:55;23.30;72.20
24011;DHT22;12217;50.792;4.372;2023-06-14T01:00:21;23.20;72.40
24011;DHT22;12217;50.792;4.372;2023-06-14T01:02:49;23.20;72.70
24011;DHT22;12217;50.792;4.372;2023-06-14T01:05:17;23.10;73.10
24011;DHT22;12217;50.792;4.372;2023-06-14T01:13:34;23.00;73.20
24011;DHT22;12217;50.792;4.372;2023-06-14T01:16:02;22.90;73.30
24011;DHT22;12217;50.792;4.372;2023-06-14T01:18:28;22.90;73.70
24011;DHT22;12217;50.792;4.372;2023-06-14T01:20:55;22.80;74.00
24011;DHT22;12217;50.792;4.372;2023-06-14T01:23:22;22.80;74.70
24011;DHT22;12217;50.792;4.372;2023-06-14T01:25:50;22.80;74.00
24011;DHT22;12217;50.792;4.372;2023-06-14T01:28:20;22.70;74.40
24011;DHT22;12217;50.792;4.372;2023-06-14T01:30:53;22.60;74.20
24011;DHT22;12217;50.792;4.372;2023-06-14T01:33:24;22.60;74.40
24011;DHT22;12217;50.792;4.372;2023-06-14T01:35:52;22.50;75.30
24011;DHT22;12217;50.792;4.372;2023-06-14T01:38:21;22.50;74.50
24011;DHT22;12217;50.792;4.372;2023-06-14T01:40:48;22.50;74.90
24011;DHT22;12217;50.792;4.372;2023-06-14T01:43:15;22.40;75.90
24011;DHT22;12217;50.792;4.372;2023-06-14T01:45:42;22.50;74.90
24011;DHT22;12217;50.792;4.372;2023-06-14T01:48:09;22.50;75.00
24011;DHT22;12217;50.792;4.372;2023-06-14T01:50:34;22.40;75.30
24011;DHT22;12217;50.792;4.372;2023-06-14T01:53:02;22.30;75.80
24011;DHT22;12217;50.792;4.372;2023-06-14T01:55:28;22.30;75.50
24011;DHT22;12217;50.792;4.372;2023-06-14T01:57:54;22.30;75.50
24011;DHT22;12217;50.792;4.372;2023-06-14T02:00:20;22.20;75.80
24011;DHT22;12217;50.792;4.372;2023-06-14T02:02:46;22.20;75.40
24011;DHT22;12217;50.792;4.372;2023-06-14T02:05:12;22.20;75.20
24011;DHT22;12217;50.792;4.372;2023-06-14T02:07:38;22.20;75.40
24011;DHT22;12217;50.792;4.372;2023-06-14T02:10:06;22.20;75.50
24011;DHT22;12217;50.792;4.372;2023-06-14T02:12:32;22.10;75.70
24011;DHT22;12217;50.792;4.372;2023-06-14T02:14:58;22.10;76.10
24011;DHT22;12217;50.792;4.372;2023-06-14T02:17:23;22.10;76.00
24011;DHT22;12217;50.792;4.372;2023-06-14T02:19:49;22.10;75.60
24011;DHT22;12217;50.792;4.372;2023-06-14T02:22:16;22.10;76.10
24011;DHT22;12217;50.792;4.372;2023-06-14T02:24:42;22.00;76.30
24011;DHT22;12217;50.792;4.372;2023-06-14T02:27:08;22.10;76.70
24011;DHT22;12217;50.792;4.372;2023-06-14T02:29:38;22.00;76.90
24011;DHT22;12217;50.792;4.372;2023-06-14T02:32:06;22.00;77.00
24011;DHT22;12217;50.792;4.372;2023-06-14T02:34:33;21.90;77.00
24011;DHT22;12217;50.792;4.372;2023-06-14T02:36:59;21.90;77.00
24011;DHT22;12217;50.792;4.372;2023-06-14T02:39:25;21.90;77.10
24011;DHT22;12217;50.792;4.372;2023-06-14T02:41:50;21.90;77.50
24011;DHT22;12217;50.792;4.372;2023-06-14T02:44:19;21.90;77.70
24011;DHT22;12217;50.792;4.372;2023-06-14T02:46:45;21.90;77.30
24011;DHT22;12217;50.792;4.372;2023-06-14T02:49:11;21.90;77.50
24011;DHT22;12217;50.792;4.372;2023-06-14T02:51:37;21.90;77.50
24011;DHT22;12217;50.792;4.372;2023-06-14T02:54:02;21.80;77.50
24011;DHT22;12217;50.792;4.372;2023-06-14T02:56:29;21.90;77.60
24011;DHT22;12217;50.792;4.372;2023-06-14T02:58:54;21.90;77.40
24011;DHT22;12217;50.792;4.372;2023-06-14T03:01:20;21.90;77.40
24011;DHT22;12217;50.792;4.372;2023-06-14T03:03:47;21.90;77.10
24011;DHT22;12217;50.792;4.372;2023-06-14T03:06:13;21.90;77.40
24011;DHT22;12217;50.792;4.372;2023-06-14T03:08:42;21.80;77.40
24011;DHT22;12217;50.792;4.372;2023-06-14T03:11:08;21.80;77.70
24011;DHT22;12217;50.792;4.372;2023-06-14T03:13:35;21.80;77.90
24011;DHT22;12217;50.792;4.372;2023-06-14T03:16:01;21.80;78.10
24011;DHT22;12217;50.792;4.372;2023-06-14T03:18:31;21.80;78.00
24011;DHT22;12217;50.792;4.372;2023-06-14T03:21:01;21.80;78.40
24011;DHT22;12217;50.792;4.372;2023-06-14T03:23:27;21.70;78.60
24011;DHT22;12217;50.792;4.372;2023-06-14T03:25:53;21.70;78.60
24011;DHT22;12217;50.792;4.372;2023-06-14T03:28:18;21.60;78.80
24011;DHT22;12217;50.792;4.372;2023-06-14T03:30:44;21.60;79.40
24011;DHT22;12217;50.792;4.372;2023-06-14T03:33:10;21.60;79.80
24011;DHT22;12217;50.792;4.372;2023-06-14T03:35:36;21.50;80.00
24011;DHT22;12217;50.792;4.372;2023-06-14T03:38:01;21.50;80.10
24011;DHT22;12217;50.792;4.372;2023-06-14T03:40:28;21.40;80.30
24011;DHT22;12217;50.792;4.372;2023-06-14T03:42:54;21.30;80.60
24011;DHT22;12217;50.792;4.372;2023-06-14T03:45:20;21.30;81.10
24011;DHT22;12217;50.792;4.372;2023-06-14T03:47:46;21.40;80.80
24011;DHT22;12217;50.792;4.372;2023-06-14T03:50:13;21.30;81.10
24011;DHT22;12217;50.792;4.372;2023-06-14T03:52:44;21.30;81.40
24011;DHT22;12217;50.792;4.372;2023-06-14T03:55:09;21.30;81.40
24011;DHT22;12217;50.792;4.372;2023-06-14T03:57:36;21.20;81.80
24011;DHT22;12217;50.792;4.372;2023-06-14T04:00:01;21.30;81.90
24011;DHT22;12217;50.792;4.372;2023-06-14T04:02:30;21.30;81.60
24011;DHT22;12217;50.792;4.372;2023-06-14T04:04:56;21.20;82.00
24011;DHT22;12217;50.792;4.372;2023-06-14T04:07:23;21.30;82.20
24011;DHT22;12217;50.792;4.372;2023-06-14T04:09:48;21.20;82.60
24011;DHT22;12217;50.792;4.372;2023-06-14T04:12:15;21.30;82.60
24011;DHT22;12217;50.792;4.372;2023-06-14T04:14:40;21.30;82.80
24011;DHT22;12217;50.792;4.372;2023-06-14T04:17:06;21.30;82.80
24011;DHT22;12217;50.792;4.372;2023-06-14T04:19:32;21.30;84.00
24011;DHT22;12217;50.792;4.372;2023-06-14T04:21:58;21.30;84.40
24011;DHT22;12217;50.792;4.372;2023-06-14T04:24:27;21.30;84.00
24011;DHT22;12217;50.792;4.372;2023-06-14T04:26:58;21.20;84.40
24011;DHT22;12217;50.792;4.372;2023-06-14T04:29:24;21.20;84.70
24011;DHT22;12217;50.792;4.372;2023-06-14T04:31:53;21.30;85.60
24011;DHT22;12217;50.792;4.372;2023-06-14T04:34:20;21.30;85.30
24011;DHT22;12217;50.792;4.372;2023-06-14T04:36:47;21.30;85.40
24011;DHT22;12217;50.792;4.372;2023-06-14T04:39:18;21.30;85.70
24011;DHT22;12217;50.792;4.372;2023-06-14T04:41:45;21.40;85.60
24011;DHT22;12217;50.792;4.372;2023-06-14T04:44:10;21.40;85.90
24011;DHT22;12217;50.792;4.372;2023-06-14T04:46:38;21.40;86.30
24011;DHT22;12217;50.792;4.372;2023-06-14T04:49:12;21.40;86.60
24011;DHT22;12217;50.792;4.372;2023-06-14T04:51:40;21.50;86.40
24011;DHT22;12217;50.792;4.372;2023-06-14T04:54:05;21.50;86.80
24011;DHT22;12217;50.792;4.372;2023-06-14T04:56:35;21.50;86.70
24011;DHT22;12217;50.792;4.372;2023-06-14T04:59:02;21.60;86.90
24011;DHT22;12217;50.792;4.372;2023-06-14T05:01:34;21.60;86.10
24011;DHT22;12217;50.792;4.372;2023-06-14T05:04:00;21.60;86.00
24011;DHT22;12217;50.792;4.372;2023-06-14T05:06:25;21.70;86.20
24011;DHT22;12217;50.792;4.372;2023-06-14T05:08:54;21.70;85.40
24011;DHT22;12217;50.792;4.372;2023-06-14T05:11:20;21.80;85.30
24011;DHT22;12217;50.792;4.372;2023-06-14T05:13:46;22.00;84.50
24011;DHT22;12217;50.792;4.372;2023-06-14T05:16:12;22.10;84.80
24011;DHT22;12217;50.792;4.372;2023-06-14T05:18:38;22.10;84.20
24011;DHT22;12217;50.792;4.372;2023-06-14T05:21:05;22.20;83.50
24011;DHT22;12217;50.792;4.372;2023-06-14T05:23:31;22.20;83.70
24011;DHT22;12217;50.792;4.372;2023-06-14T05:25:57;22.30;83.30
24011;DHT22;12217;50.792;4.372;2023-06-14T05:28:23;22.30;83.10
24011;DHT22;12217;50.792;4.372;2023-06-14T05:30:49;22.40;82.70
24011;DHT22;12217;50.792;4.372;2023-06-14T05:33:15;22.50;82.80
24011;DHT22;12217;50.792;4.372;2023-06-14T05:35:40;22.60;82.30
24011;DHT22;12217;50.792;4.372;2023-06-14T05:38:06;22.60;82.10
24011;DHT22;12217;50.792;4.372;2023-06-14T05:40:33;22.60;82.20
24011;DHT22;12217;50.792;4.372;2023-06-14T05:42:58;22.60;82.50
24011;DHT22;12217;50.792;4.372;2023-06-14T05:45:24;22.70;81.80
24011;DHT22;12217;50.792;4.372;2023-06-14T05:47:50;22.80;82.30
24011;DHT22;12217;50.792;4.372;2023-06-14T05:50:16;22.80;81.70
24011;DHT22;12217;50.792;4.372;2023-06-14T05:52:44;22.90;81.80
24011;DHT22;12217;50.792;4.372;2023-06-14T05:55:11;22.80;82.10
24011;DHT22;12217;50.792;4.372;2023-06-14T05:57:37;22.90;81.70
24011;DHT22;12217;50.792;4.372;2023-06-14T06:00:04;23.10;81.90
24011;DHT22;12217;50.792;4.372;2023-06-14T06:02:36;23.20;81.10
24011;DHT22;12217;50.792;4.372;2023-06-14T06:05:05;23.30;81.90
24011;DHT22;12217;50.792;4.372;2023-06-14T06:07:31;23.30;81.00
24011;DHT22;12217;50.792;4.372;2023-06-14T06:09:57;23.40;81.10
24011;DHT22;12217;50.792;4.372;2023-06-14T06:12:22;23.50;81.20
24011;DHT22;12217;50.792;4.372;2023-06-14T06:14:48;23.50;81.60
24011;DHT22;12217;50.792;4.372;2023-06-14T06:17:13;23.60;81.70
24011;DHT22;12217;50.792;4.372;2023-06-14T06:19:39;23.70;82.30
24011;DHT22;12217;50.792;4.372;2023-06-14T06:22:05;23.70;82.40
24011;DHT22;12217;50.792;4.372;2023-06-14T06:24:32;23.70;82.10
24011;DHT22;12217;50.792;4.372;2023-06-14T06:26:58;23.80;80.90
24011;DHT22;12217;50.792;4.372;2023-06-14T06:29:23;23.90;79.10
24011;DHT22;12217;50.792;4.372;2023-06-14T06:31:49;23.90;79.20
24011;DHT22;12217;50.792;4.372;2023-06-14T06:34:16;23.90;80.20
24011;DHT22;12217;50.792;4.372;2023-06-14T06:36:41;24.00;80.30
24011;DHT22;12217;50.792;4.372;2023-06-14T06:39:07;24.10;80.90
24011;DHT22;12217;50.792;4.372;2023-06-14T06:41:37;24.00;80.10
24011;DHT22;12217;50.792;4.372;2023-06-14T06:44:07;24.20;79.90
24011;DHT22;12217;50.792;4.372;2023-06-14T06:46:39;24.20;80.20
24011;DHT22;12217;50.792;4.372;2023-06-14T06:49:09;24.40;80.00
24011;DHT22;12217;50.792;4.372;2023-06-14T06:51:35;24.40;80.40
24011;DHT22;12217;50.792;4.372;2023-06-14T06:54:02;24.40;79.60
24011;DHT22;12217;50.792;4.372;2023-06-14T06:56:27;24.40;79.30
24011;DHT22;12217;50.792;4.372;2023-06-14T06:58:53;24.50;79.40
24011;DHT22;12217;50.792;4.372;2023-06-14T07:01:19;24.60;79.30
24011;DHT22;12217;50.792;4.372;2023-06-14T07:03:45;24.60;79.60
24011;DHT22;12217;50.792;4.372;2023-06-14T07:06:11;24.70;79.50
24011;DHT22;12217;50.792;4.372;2023-06-14T07:08:37;24.70;80.00
24011;DHT22;12217;50.792;4.372;2023-06-14T07:11:04;24.80;79.80
24011;DHT22;12217;50.792;4.372;2023-06-14T07:13:30;24.90;81.60
24011;DHT22;12217;50.792;4.372;2023-06-14T07:15:58;24.90;79.70
24011;DHT22;12217;50.792;4.372;2023-06-14T07:18:28;25.00;79.10
24011;DHT22;12217;50.792;4.372;2023-06-14T07:20:54;25.10;78.30
24011;DHT22;12217;50.792;4.372;2023-06-14T07:23:20;25.10;78.10
24011;DHT22;12217;50.792;4.372;2023-06-14T07:25:46;25.20;78.50
24011;DHT22;12217;50.792;4.372;2023-06-14T07:28:12;25.30;78.70
24011;DHT22;12217;50.792;4.372;2023-06-14T07:30:37;25.30;77.60
24011;DHT22;12217;50.792;4.372;2023-06-14T07:33:03;25.40;74.40
24011;DHT22;12217;50.792;4.372;2023-06-14T07:35:29;25.40;74.30
24011;DHT22;12217;50.792;4.372;2023-06-14T07:37:54;25.50;73.60
24011;DHT22;12217;50.792;4.372;2023-06-14T07:40:20;25.40;74.70
24011;DHT22;12217;50.792;4.372;2023-06-14T07:42:47;25.40;73.50
24011;DHT22;12217;50.792;4.372;2023-06-14T07:45:15;25.60;73.40
24011;DHT22;12217;50.792;4.372;2023-06-14T07:47:40;25.50;74.20
24011;DHT22;12217;50.792;4.372;2023-06-14T07:50:06;25.50;74.30
24011;DHT22;12217;50.792;4.372;2023-06-14T07:52:32;25.60;75.00
24011;DHT22;12217;50.792;4.372;2023-06-14T07:54:58;25.60;75.40
24011;DHT22;12217;50.792;4.372;2023-06-14T07:57:23;25.70;74.80
24011;DHT22;12217;50.792;4.372;2023-06-14T07:59:49;25.70;74.40
24011;DHT22;12217;50.792;4.372;2023-06-14T08:02:15;25.90;73.20
24011;DHT22;12217;50.792;4.372;2023-06-14T08:04:41;26.00;74.30
24011;DHT22;12217;50.792;4.372;2023-06-14T08:07:07;26.00;76.20
24011;DHT22;12217;50.792;4.372;2023-06-14T08:09:33;26.00;74.00
24011;DHT22;12217;50.792;4.372;2023-06-14T08:11:59;26.00;74.00
24011;DHT22;12217;50.792;4.372;2023-06-14T08:14:25;26.10;73.60
24011;DHT22;12217;50.792;4.372;2023-06-14T08:16:52;26.20;74.80
24011;DHT22;12217;50.792;4.372;2023-06-14T08:19:19;26.40;73.10
24011;DHT22;12217;50.792;4.372;2023-06-14T08:21:45;26.60;71.90
24011;DHT22;12217;50.792;4.372;2023-06-14T08:24:11;26.70;72.60
24011;DHT22;12217;50.792;4.372;2023-06-14T08:26:38;26.80;72.70
24011;DHT22;12217;50.792;4.372;2023-06-14T08:29:04;26.90;71.30
24011;DHT22;12217;50.792;4.372;2023-06-14T08:31:33;26.90;71.10
24011;DHT22;12217;50.792;4.372;2023-06-14T08:33:59;26.90;70.60
24011;DHT22;12217;50.792;4.372;2023-06-14T08:36:24;27.00;68.80
24011;DHT22;12217;50.792;4.372;2023-06-14T08:38:50;27.10;69.80
24011;DHT22;12217;50.792;4.372;2023-06-14T08:41:22;27.10;71.60
24011;DHT22;12217;50.792;4.372;2023-06-14T08:43:52;27.20;66.90
24011;DHT22;12217;50.792;4.372;2023-06-14T08:46:18;27.20;69.80
24011;DHT22;12217;50.792;4.372;2023-06-14T08:48:51;27.30;68.10
24011;DHT22;12217;50.792;4.372;2023-06-14T08:51:19;27.40;65.90
24011;DHT22;12217;50.792;4.372;2023-06-14T08:53:51;27.40;68.10
24011;DHT22;12217;50.792;4.372;2023-06-14T08:56:18;27.50;70.30
24011;DHT22;12217;50.792;4.372;2023-06-14T08:58:46;27.60;70.00
24011;DHT22;12217;50.792;4.372;2023-06-14T09:01:14;27.60;69.70
24011;DHT22;12217;50.792;4.372;2023-06-14T09:03:43;27.60;70.10
24011;DHT22;12217;50.792;4.372;2023-06-14T09:06:10;27.70;68.50
24011;DHT22;12217;50.792;4.372;2023-06-14T09:08:43;27.70;70.80
24011;DHT22;12217;50.792;4.372;2023-06-14T09:11:13;27.70;70.00
24011;DHT22;12217;50.792;4.372;2023-06-14T09:13:40;27.90;70.50
24011;DHT22;12217;50.792;4.372;2023-06-14T09:16:06;28.00;70.50
24011;DHT22;12217;50.792;4.372;2023-06-14T09:21:01;28.10;67.30
24011;DHT22;12217;50.792;4.372;2023-06-14T09:23:27;28.20;66.20
24011;DHT22;12217;50.792;4.372;2023-06-14T09:25:52;28.30;68.40
24011;DHT22;12217;50.792;4.372;2023-06-14T09:28:18;28.40;67.30
24011;DHT22;12217;50.792;4.372;2023-06-14T09:30:47;28.40;69.30
24011;DHT22;12217;50.792;4.372;2023-06-14T09:33:17;28.40;66.50
24011;DHT22;12217;50.792;4.372;2023-06-14T09:35:45;28.40;67.70
24011;DHT22;12217;50.792;4.372;2023-06-14T09:38:11;28.40;69.60
24011;DHT22;12217;50.792;4.372;2023-06-14T09:40:37;28.50;69.60
24011;DHT22;12217;50.792;4.372;2023-06-14T09:43:05;28.30;64.10
24011;DHT22;12217;50.792;4.372;2023-06-14T09:45:33;28.10;66.70
24011;DHT22;12217;50.792;4.372;2023-06-14T09:47:58;28.20;66.50
24011;DHT22;12217;50.792;4.372;2023-06-14T09:50:25;28.40;67.10
24011;DHT22;12217;50.792;4.372;2023-06-14T09:52:52;28.40;63.90
24011;DHT22;12217;50.792;4.372;2023-06-14T09:55:22;28.60;63.60
24011;DHT22;12217;50.792;4.372;2023-06-14T09:57:50;28.70;65.30
24011;DHT22;12217;50.792;4.372;2023-06-14T10:00:17;28.80;64.60
24011;DHT22;12217;50.792;4.372;2023-06-14T10:02:49;28.90;66.30
24011;DHT22;12217;50.792;4.372;2023-06-14T10:05:17;29.00;66.20
24011;DHT22;12217;50.792;4.372;2023-06-14T10:07:52;29.20;64.20
24011;DHT22;12217;50.792;4.372;2023-06-14T10:10:19;29.30;65.10
24011;DHT22;12217;50.792;4.372;2023-06-14T10:12:45;29.30;64.70
24011;DHT22;12217;50.792;4.372;2023-06-14T10:15:22;29.10;65.00
24011;DHT22;12217;50.792;4.372;2023-06-14T10:17:54;29.20;62.00
24011;DHT22;12217;50.792;4.372;2023-06-14T10:22:53;29.60;61.20
24011;DHT22;12217;50.792;4.372;2023-06-14T10:25:30;29.80;61.10
24011;DHT22;12217;50.792;4.372;2023-06-14T10:31:11;29.80;63.30
24011;DHT22;12217;50.792;4.372;2023-06-14T10:39:15;30.20;59.00
24011;DHT22;12217;50.792;4.372;2023-06-14T10:41:42;30.40;56.50
24011;DHT22;12217;50.792;4.372;2023-06-14T10:46:53;30.40;56.80
24011;DHT22;12217;50.792;4.372;2023-06-14T10:49:20;30.30;56.20
24011;DHT22;12217;50.792;4.372;2023-06-14T10:51:57;30.30;57.20
24011;DHT22;12217;50.792;4.372;2023-06-14T10:54:23;30.40;57.50
24011;DHT22;12217;50.792;4.372;2023-06-14T10:56:52;30.40;56.40
24011;DHT22;12217;50.792;4.372;2023-06-14T10:59:20;30.40;54.50
24011;DHT22;12217;50.792;4.372;2023-06-14T11:02:56;30.60;55.90
24011;DHT22;12217;50.792;4.372;2023-06-14T11:04:51;30.80;54.30
24011;DHT22;12217;50.792;4.372;2023-06-14T11:07:55;30.80;54.70
24011;DHT22;12217;50.792;4.372;2023-06-14T11:10:36;31.00;52.10
24011;DHT22;12217;50.792;4.372;2023-06-14T11:13:03;31.00;54.70
24011;DHT22;12217;50.792;4.372;2023-06-14T11:15:30;31.10;52.50
24011;DHT22;12217;50.792;4.372;2023-06-14T11:17:56;31.20;50.30
24011;DHT22;12217;50.792;4.372;2023-06-14T11:20:25;31.20;50.70
24011;DHT22;12217;50.792;4.372;2023-06-14T11:22:52;31.20;54.00
24011;DHT22;12217;50.792;4.372;2023-06-14T11:25:18;31.10;51.50
24011;DHT22;12217;50.792;4.372;2023-06-14T11:27:45;31.30;53.30
24011;DHT22;12217;50.792;4.372;2023-06-14T11:30:13;31.40;52.70
24011;DHT22;12217;50.792;4.372;2023-06-14T11:32:39;31.40;53.40
24011;DHT22;12217;50.792;4.372;2023-06-14T11:35:05;31.50;52.70
24011;DHT22;12217;50.792;4.372;2023-06-14T11:37:32;31.60;52.80
24011;DHT22;12217;50.792;4.372;2023-06-14T11:40:01;31.60;52.00
24011;DHT22;12217;50.792;4.372;2023-06-14T11:42:29;31.70;53.20
24011;DHT22;12217;50.792;4.372;2023-06-14T11:44:55;31.80;52.60
24011;DHT22;12217;50.792;4.372;2023-06-14T11:47:22;31.90;53.40
24011;DHT22;12217;50.792;4.372;2023-06-14T11:49:47;31.70;52.00
24011;DHT22;12217;50.792;4.372;2023-06-14T11:52:13;31.70;50.30
24011;DHT22;12217;50.792;4.372;2023-06-14T11:54:39;31.90;50.20
24011;DHT22;12217;50.792;4.372;2023-06-14T11:57:06;31.90;49.60
24011;DHT22;12217;50.792;4.372;2023-06-14T11:59:37;32.20;52.60
24011;DHT22;12217;50.792;4.372;2023-06-14T12:02:03;32.20;50.50
24011;DHT22;12217;50.792;4.372;2023-06-14T12:04:29;32.20;50.60
24011;DHT22;12217;50.792;4.372;2023-06-14T12:06:56;32.20;50.30
24011;DHT22;12217;50.792;4.372;2023-06-14T12:09:23;32.30;51.80
24011;DHT22;12217;50.792;4.372;2023-06-14T12:12:00;32.40;49.30
24011;DHT22;12217;50.792;4.372;2023-06-14T12:14:30;32.40;50.90
24011;DHT22;12217;50.792;4.372;2023-06-14T12:17:06;32.40;48.50
24011;DHT22;12217;50.792;4.372;2023-06-14T12:19:32;32.10;47.20
24011;DHT22;12217;50.792;4.372;2023-06-14T12:22:03;32.30;48.80
24011;DHT22;12217;50.792;4.372;2023-06-14T12:24:31;32.50;48.70
24011;DHT22;12217;50.792;4.372;2023-06-14T12:26:58;32.60;51.20
24011;DHT22;12217;50.792;4.372;2023-06-14T12:29:29;32.70;47.40
24011;DHT22;12217;50.792;4.372;2023-06-14T12:31:55;32.70;48.30
24011;DHT22;12217;50.792;4.372;2023-06-14T12:34:23;32.80;47.90
24011;DHT22;12217;50.792;4.372;2023-06-14T12:36:50;32.90;47.50
24011;DHT22;12217;50.792;4.372;2023-06-14T12:39:15;33.10;48.90
24011;DHT22;12217;50.792;4.372;2023-06-14T12:41:41;33.20;47.30
24011;DHT22;12217;50.792;4.372;2023-06-14T12:44:07;33.20;47.70
24011;DHT22;12217;50.792;4.372;2023-06-14T12:46:33;33.10;46.90
24011;DHT22;12217;50.792;4.372;2023-06-14T12:49:02;33.10;47.00
24011;DHT22;12217;50.792;4.372;2023-06-14T12:51:27;33.20;48.70
24011;DHT22;12217;50.792;4.372;2023-06-14T12:53:53;33.20;48.70
24011;DHT22;12217;50.792;4.372;2023-06-14T12:56:20;33.10;48.30
24011;DHT22;12217;50.792;4.372;2023-06-14T12:58:46;33.10;47.80
24011;DHT22;12217;50.792;4.372;2023-06-14T13:01:11;33.20;46.90
24011;DHT22;12217;50.792;4.372;2023-06-14T13:03:37;33.40;46.10
24011;DHT22;12217;50.792;4.372;2023-06-14T13:06:03;33.50;47.30
24011;DHT22;12217;50.792;4.372;2023-06-14T13:08:30;33.20;46.40
24011;DHT22;12217;50.792;4.372;2023-06-14T13:10:56;33.20;46.50
24011;DHT22;12217;50.792;4.372;2023-06-14T13:13:23;33.30;47.50
24011;DHT22;12217;50.792;4.372;2023-06-14T13:15:48;33.10;46.80
24011;DHT22;12217;50.792;4.372;2023-06-14T13:18:15;32.90;46.50
24011;DHT22;12217;50.792;4.372;2023-06-14T13:20:42;33.10;47.00
24011;DHT22;12217;50.792;4.372;2023-06-14T13:23:08;33.20;47.00
24011;DHT22;12217;50.792;4.372;2023-06-14T13:25:36;33.10;45.60
24011;DHT22;12217;50.792;4.372;2023-06-14T13:28:03;33.10;47.10
24011;DHT22;12217;50.792;4.372;2023-06-14T13:30:29;33.10;47.30
24011;DHT22;12217;50.792;4.372;2023-06-14T13:32:55;33.10;46.70
24011;DHT22;12217;50.792;4.372;2023-06-14T13:35:22;33.20;45.70
24011;DHT22;12217;50.792;4.372;2023-06-14T13:37:48;33.10;45.40
24011;DHT22;12217;50.792;4.372;2023-06-14T13:40:13;33.20;43.80
24011;DHT22;12217;50.792;4.372;2023-06-14T13:42:39;33.30;44.80
24011;DHT22;12217;50.792;4.372;2023-06-14T13:45:06;33.40;46.60
24011;DHT22;12217;50.792;4.372;2023-06-14T13:47:32;33.30;45.00
24011;DHT22;12217;50.792;4.372;2023-06-14T13:49:58;33.30;46.90
24011;DHT22;12217;50.792;4.372;2023-06-14T13:52:24;33.20;45.80
24011;DHT22;12217;50.792;4.372;2023-06-14T13:54:50;33.00;47.20
24011;DHT22;12217;50.792;4.372;2023-06-14T13:57:17;32.80;45.40
24011;DHT22;12217;50.792;4.372;2023-06-14T13:59:43;32.80;45.60
24011;DHT22;12217;50.792;4.372;2023-06-14T14:02:12;32.90;44.10
24011;DHT22;12217;50.792;4.372;2023-06-14T14:04:39;32.70;45.80
24011;DHT22;12217;50.792;4.372;2023-06-14T14:07:05;32.50;45.70
24011;DHT22;12217;50.792;4.372;2023-06-14T14:09:35;32.50;45.70
24011;DHT22;12217;50.792;4.372;2023-06-14T14:12:01;32.70;46.40
24011;DHT22;12217;50.792;4.372;2023-06-14T14:14:31;32.70;45.50
24011;DHT22;12217;50.792;4.372;2023-06-14T14:16:57;32.70;46.20
24011;DHT22;12217;50.792;4.372;2023-06-14T14:19:23;32.70;45.50
24011;DHT22;12217;50.792;4.372;2023-06-14T14:21:49;32.90;46.00
24011;DHT22;12217;50.792;4.372;2023-06-14T14:24:14;33.00;45.90
24011;DHT22;12217;50.792;4.372;2023-06-14T14:26:41;32.90;45.90
24011;DHT22;12217;50.792;4.372;2023-06-14T14:29:07;33.00;44.70
24011;DHT22;12217;50.792;4.372;2023-06-14T14:31:33;33.20;43.20
24011;DHT22;12217;50.792;4.372;2023-06-14T14:33:59;33.30;43.90
24011;DHT22;12217;50.792;4.372;2023-06-14T14:36:25;33.10;43.60
24011;DHT22;12217;50.792;4.372;2023-06-14T14:38:50;32.90;43.60
24011;DHT22;12217;50.792;4.372;2023-06-14T14:41:17;32.70;45.30
24011;DHT22;12217;50.792;4.372;2023-06-14T14:43:43;32.70;44.40
24011;DHT22;12217;50.792;4.372;2023-06-14T14:46:08;32.60;44.20
24011;DHT22;12217;50.792;4.372;2023-06-14T14:48:35;32.60;43.60
24011;DHT22;12217;50.792;4.372;2023-06-14T14:51:01;33.00;43.10
24011;DHT22;12217;50.792;4.372;2023-06-14T14:53:27;32.90;41.90
24011;DHT22;12217;50.792;4.372;2023-06-14T14:55:52;32.70;42.80
24011;DHT22;12217;50.792;4.372;2023-06-14T14:58:18;32.60;42.70
24011;DHT22;12217;50.792;4.372;2023-06-14T15:00:45;32.50;43.80
24011;DHT22;12217;50.792;4.372;2023-06-14T15:03:11;32.40;44.60
24011;DHT22;12217;50.792;4.372;2023-06-14T15:05:36;32.50;44.40
24011;DHT22;12217;50.792;4.372;2023-06-14T15:08:05;32.40;45.00
24011;DHT22;12217;50.792;4.372;2023-06-14T15:10:40;32.30;44.40
24011;DHT22;12217;50.792;4.372;2023-06-14T15:13:07;32.30;44.10
24011;DHT22;12217;50.792;4.372;2023-06-14T15:15:34;32.30;42.40
24011;DHT22;12217;50.792;4.372;2023-06-14T15:18:01;32.10;43.70
24011;DHT22;12217;50.792;4.372;2023-06-14T15:20:27;32.10;44.50
24011;DHT22;12217;50.792;4.372;2023-06-14T15:22:54;32.10;45.30
24011;DHT22;12217;50.792;4.372;2023-06-14T15:25:29;32.10;42.50
24011;DHT22;12217;50.792;4.372;2023-06-14T15:27:58;32.20;42.20
24011;DHT22;12217;50.792;4.372;2023-06-14T15:30:23;32.20;42.40
24011;DHT22;12217;50.792;4.372;2023-06-14T15:32:49;32.30;44.00
24011;DHT22;12217;50.792;4.372;2023-06-14T15:35:16;32.10;44.20
24011;DHT22;12217;50.792;4.372;2023-06-14T15:37:43;32.20;43.70
24011;DHT22;12217;50.792;4.372;2023-06-14T15:40:09;32.30;42.00
24011;DHT22;12217;50.792;4.372;2023-06-14T15:42:35;32.30;45.10
24011;DHT22;12217;50.792;4.372;2023-06-14T15:45:00;32.30;43.70
24011;DHT22;12217;50.792;4.372;2023-06-14T15:47:26;32.30;43.20
24011;DHT22;12217;50.792;4.372;2023-06-14T15:49:52;32.20;44.10
24011;DHT22;12217;50.792;4.372;2023-06-14T15:52:17;32.20;44.10